createdAt,value
2017-12-17T00:00:31.638Z,11.00
2017-12-17T00:02:59.068Z,12.13
2017-12-17T00:05:26.488Z,10.93
2017-12-17T00:07:53.908Z,10.60
2017-12-17T00:10:21.343Z,9.80
2017-12-17T00:12:48.776Z,9.27
2017-12-17T00:15:16.975Z,9.27
2017-12-17T00:17:45.312Z,9.23
2017-12-17T00:20:12.770Z,10.70
2017-12-17T00:22:40.171Z,11.03
2017-12-17T00:25:08.351Z,9.57
2017-12-17T00:27:35.932Z,11.40
2017-12-17T00:30:03.340Z,10.10
2017-12-17T00:32:30.810Z,9.97
2017-12-17T00:34:58.203Z,9.00
2017-12-17T00:37:26.459Z,9.10
2017-12-17T00:39:53.864Z,10.37
2017-12-17T00:42:21.284Z,9.90
2017-12-17T00:44:48.702Z,10.50
2017-12-17T00:47:16.116Z,9.50
2017-12-17T00:49:44.304Z,9.73
2017-12-17T00:52:11.734Z,10.17
2017-12-17T00:54:39.908Z,9.13
2017-12-17T00:57:07.364Z,8.63
2017-12-17T00:59:34.767Z,9.00
2017-12-17T01:02:02.965Z,9.70
2017-12-17T01:04:30.388Z,12.30
2017-12-17T01:06:57.803Z,8.90
2017-12-17T01:09:25.991Z,10.03
2017-12-17T01:11:53.408Z,9.70
2017-12-17T01:14:21.596Z,9.80
2017-12-17T01:16:49.019Z,10.77
2017-12-17T01:19:16.441Z,11.00
2017-12-17T01:21:43.863Z,11.03
2017-12-17T01:24:11.288Z,10.03
2017-12-17T01:26:38.725Z,10.33
2017-12-17T01:29:06.167Z,11.70
2017-12-17T01:31:33.595Z,10.83
2017-12-17T01:34:01.004Z,12.17
2017-12-17T01:36:29.199Z,13.53
2017-12-17T01:38:56.625Z,12.40
2017-12-17T01:41:24.040Z,14.40
2017-12-17T01:43:52.256Z,13.73
2017-12-17T01:46:19.675Z,15.53
2017-12-17T01:48:47.095Z,11.90
2017-12-17T01:51:14.518Z,12.53
2017-12-17T01:53:42.704Z,14.73
2017-12-17T01:56:10.132Z,12.03
2017-12-17T01:58:38.328Z,12.27
2017-12-17T02:01:05.743Z,12.87
2017-12-17T02:03:33.172Z,13.77
2017-12-17T02:06:01.352Z,14.00
2017-12-17T02:08:28.777Z,13.43
2017-12-17T02:10:56.959Z,13.00
2017-12-17T02:13:24.383Z,11.73
2017-12-17T02:15:51.808Z,11.43
2017-12-17T02:18:20.008Z,13.97
2017-12-17T02:20:47.426Z,11.80
2017-12-17T02:23:14.848Z,11.57
2017-12-17T02:25:43.036Z,12.83
2017-12-17T02:28:10.467Z,13.20
2017-12-17T02:30:37.881Z,14.67
2017-12-17T02:33:05.295Z,13.37
2017-12-17T02:35:32.719Z,17.27
2017-12-17T02:38:00.180Z,12.37
2017-12-17T02:40:27.600Z,12.20
2017-12-17T02:42:55.025Z,13.90
2017-12-17T02:45:22.440Z,13.00
2017-12-17T02:47:50.635Z,14.70
2017-12-17T02:50:18.056Z,13.20
2017-12-17T02:52:45.478Z,12.47
2017-12-17T02:55:13.664Z,11.37
2017-12-17T02:57:41.100Z,13.23
2017-12-17T03:00:08.524Z,11.20
2017-12-17T03:02:36.722Z,10.57
2017-12-17T03:05:04.144Z,11.40
2017-12-17T03:07:31.560Z,10.77
2017-12-17T03:09:59.739Z,11.20
2017-12-17T03:12:27.155Z,11.83
2017-12-17T03:14:55.350Z,10.80
2017-12-17T03:17:22.776Z,10.70
2017-12-17T03:19:50.956Z,11.33
2017-12-17T03:22:18.372Z,11.00
2017-12-17T03:24:45.791Z,10.67
2017-12-17T03:27:13.211Z,10.60
2017-12-17T03:29:40.640Z,11.00
2017-12-17T03:32:08.060Z,12.47
2017-12-17T03:34:35.499Z,11.70
2017-12-17T03:37:02.920Z,11.03
2017-12-17T03:39:31.107Z,11.00
2017-12-17T03:41:58.530Z,10.50
2017-12-17T03:44:25.949Z,12.07
2017-12-17T03:46:54.132Z,9.47
2017-12-17T03:49:21.552Z,10.43
2017-12-17T03:51:49.861Z,10.67
2017-12-17T03:54:17.307Z,10.33
2017-12-17T03:56:44.741Z,10.60
2017-12-17T03:59:12.157Z,11.13
2017-12-17T04:01:39.572Z,9.53
2017-12-17T04:04:07.749Z,8.67
2017-12-17T04:06:35.180Z,10.53
2017-12-17T04:09:03.361Z,9.53
2017-12-17T04:11:30.785Z,11.20
2017-12-17T04:13:58.976Z,12.23
2017-12-17T04:16:26.405Z,10.53
2017-12-17T04:18:53.816Z,9.87
2017-12-17T04:21:22.025Z,10.73
2017-12-17T04:23:49.432Z,11.47
2017-12-17T04:26:16.889Z,10.53
2017-12-17T04:28:45.054Z,11.77
2017-12-17T04:31:12.472Z,14.83
2017-12-17T04:33:40.656Z,12.30
2017-12-17T04:36:08.098Z,11.43
2017-12-17T04:38:35.507Z,11.80
2017-12-17T04:41:03.691Z,14.73
2017-12-17T04:43:31.108Z,11.97
2017-12-17T04:45:59.308Z,12.23
2017-12-17T04:48:26.740Z,12.73
2017-12-17T04:50:54.183Z,13.00
2017-12-17T04:53:21.603Z,12.37
2017-12-17T04:55:49.028Z,14.07
2017-12-17T04:58:17.219Z,14.67
2017-12-17T05:00:44.665Z,14.13
2017-12-17T05:03:12.080Z,14.10
2017-12-17T05:05:39.499Z,18.03
2017-12-17T05:08:07.689Z,16.27
2017-12-17T05:10:35.117Z,16.33
2017-12-17T05:13:03.349Z,13.60
2017-12-17T05:15:30.740Z,14.53
2017-12-17T05:17:58.171Z,14.33
2017-12-17T05:20:25.604Z,13.40
2017-12-17T05:22:53.798Z,13.40
2017-12-17T05:25:21.212Z,15.30
2017-12-17T05:27:48.661Z,14.63
2017-12-17T05:30:16.080Z,15.13
2017-12-17T05:32:44.273Z,14.43
2017-12-17T05:35:11.699Z,14.60
2017-12-17T05:37:39.129Z,15.00
2017-12-17T05:40:06.549Z,13.60
2017-12-17T05:42:34.752Z,13.63
2017-12-17T05:45:02.169Z,18.83
2017-12-17T05:47:30.360Z,15.17
2017-12-17T05:49:57.784Z,13.07
2017-12-17T05:52:25.208Z,14.10
2017-12-17T05:54:53.397Z,16.57
2017-12-17T05:57:20.820Z,12.70
2017-12-17T05:59:48.241Z,13.30
2017-12-17T06:02:16.471Z,12.13
2017-12-17T06:04:43.892Z,13.63
2017-12-17T06:07:11.312Z,15.10
2017-12-17T06:09:38.731Z,11.87
2017-12-17T06:12:06.929Z,11.67
2017-12-17T06:14:34.359Z,14.03
2017-12-17T06:17:01.776Z,12.43
2017-12-17T06:19:29.955Z,10.37
2017-12-17T06:21:57.391Z,12.27
2017-12-17T06:24:24.817Z,13.27
2017-12-17T06:26:52.991Z,12.83
2017-12-17T06:29:20.416Z,11.60
2017-12-17T06:31:48.603Z,11.80
2017-12-17T06:34:16.027Z,11.97
2017-12-17T06:36:43.448Z,11.23
2017-12-17T06:39:11.643Z,14.97
2017-12-17T06:41:39.071Z,12.73
2017-12-17T06:44:06.534Z,10.30
2017-12-17T06:46:33.939Z,10.83
2017-12-17T06:49:02.113Z,9.13
2017-12-17T06:51:29.532Z,12.77
2017-12-17T06:53:57.725Z,12.53
2017-12-17T06:56:25.156Z,10.80
2017-12-17T06:58:52.572Z,11.47
2017-12-17T07:01:20.763Z,13.03
2017-12-17T07:03:48.195Z,12.50
2017-12-17T07:06:15.612Z,13.77
2017-12-17T07:08:43.796Z,10.77
2017-12-17T07:11:11.212Z,13.53
2017-12-17T07:13:39.404Z,13.93
2017-12-17T07:16:06.832Z,13.70
2017-12-17T07:18:34.272Z,13.80
2017-12-17T07:21:01.700Z,15.03
2017-12-17T07:23:29.891Z,20.73
2017-12-17T07:25:57.312Z,15.23
2017-12-17T07:28:24.741Z,14.60
2017-12-17T07:30:52.924Z,12.67
2017-12-17T07:33:20.349Z,11.70
2017-12-17T07:35:48.535Z,10.60
2017-12-17T07:38:15.948Z,9.07
2017-12-17T07:40:44.137Z,8.00
2017-12-17T07:43:11.552Z,7.30
2017-12-17T07:45:39.728Z,7.83
2017-12-17T07:48:07.156Z,10.47
2017-12-17T07:50:34.572Z,9.17
2017-12-17T07:53:02.774Z,10.43
2017-12-17T07:55:30.184Z,11.03
2017-12-17T07:57:58.372Z,9.87
2017-12-17T08:00:25.788Z,10.43
2017-12-17T08:02:53.972Z,12.63
2017-12-17T08:05:21.392Z,9.80
2017-12-17T08:07:49.572Z,9.07
2017-12-17T08:10:16.997Z,10.30
2017-12-17T08:12:44.411Z,12.40
2017-12-17T08:15:11.830Z,10.57
2017-12-17T08:17:39.248Z,12.80
2017-12-17T08:20:06.707Z,9.00
2017-12-17T08:22:34.105Z,10.10
2017-12-17T08:25:01.540Z,9.13
2017-12-17T08:27:29.726Z,10.70
2017-12-17T08:29:57.148Z,7.73
2017-12-17T08:32:24.579Z,8.20
2017-12-17T08:34:52.753Z,9.97
2017-12-17T08:37:20.177Z,11.90
2017-12-17T08:39:48.352Z,6.03
2017-12-17T08:42:15.768Z,5.50
2017-12-17T08:44:43.952Z,6.37
2017-12-17T08:47:11.368Z,6.93
2017-12-17T08:49:39.544Z,6.57
2017-12-17T08:52:06.967Z,5.97
2017-12-17T08:54:35.143Z,6.63
2017-12-17T08:57:02.555Z,5.40
2017-12-17T08:59:29.983Z,5.93
2017-12-17T09:01:57.401Z,5.97
2017-12-17T09:04:24.807Z,6.67
2017-12-17T09:06:52.228Z,5.20
2017-12-17T09:09:19.646Z,6.40
2017-12-17T09:11:47.070Z,5.00
2017-12-17T09:14:14.512Z,4.43
2017-12-17T09:16:41.932Z,4.23
2017-12-17T09:19:09.344Z,6.10
2017-12-17T09:21:37.560Z,3.93
2017-12-17T09:24:04.972Z,4.33
2017-12-17T09:26:32.392Z,3.43
2017-12-17T09:29:00.576Z,5.30
2017-12-17T09:31:27.996Z,3.00
2017-12-17T09:33:56.176Z,2.67
2017-12-17T09:36:24.367Z,3.27
2017-12-17T09:38:51.791Z,3.40
2017-12-17T09:41:19.224Z,2.80
2017-12-17T09:43:46.642Z,4.27
2017-12-17T09:46:14.832Z,4.43
2017-12-17T09:48:42.240Z,3.33
2017-12-17T09:51:09.652Z,4.97
2017-12-17T09:53:37.068Z,7.37
2017-12-17T09:56:04.476Z,5.40
2017-12-17T09:58:32.660Z,4.10
2017-12-17T10:01:00.084Z,4.33
2017-12-17T10:03:27.508Z,3.50
2017-12-17T10:05:55.713Z,4.97
2017-12-17T10:08:23.127Z,4.93
2017-12-17T10:10:50.544Z,5.83
2017-12-17T10:13:17.972Z,3.60
2017-12-17T10:15:45.399Z,6.43
2017-12-17T10:18:12.839Z,4.73
2017-12-17T10:20:40.247Z,3.47
2017-12-17T10:23:07.671Z,4.53
2017-12-17T10:25:35.856Z,5.00
2017-12-17T10:28:03.292Z,4.13
2017-12-17T10:30:30.708Z,6.13
2017-12-17T10:32:58.896Z,4.17
2017-12-17T10:35:26.307Z,3.77
2017-12-17T10:37:54.499Z,2.37
2017-12-17T10:40:21.916Z,3.97
2017-12-17T10:42:49.332Z,4.17
2017-12-17T10:45:16.743Z,3.97
2017-12-17T10:47:44.168Z,4.33
2017-12-17T10:50:11.572Z,4.90
2017-12-17T10:52:39.780Z,4.40
2017-12-17T10:55:07.199Z,5.87
2017-12-17T10:57:34.616Z,2.87
2017-12-17T11:00:02.806Z,3.47
2017-12-17T11:02:30.213Z,4.10
2017-12-17T11:04:59.190Z,4.33
2017-12-17T11:07:27.363Z,2.37
2017-12-17T11:09:54.787Z,3.27
2017-12-17T11:12:22.969Z,3.60
2017-12-17T11:14:50.395Z,7.03
2017-12-17T11:17:17.830Z,2.67
2017-12-17T11:19:45.995Z,3.27
2017-12-17T11:22:13.417Z,5.40
2017-12-17T11:24:41.600Z,2.90
2017-12-17T11:27:09.007Z,3.50
2017-12-17T11:29:36.447Z,3.60
2017-12-17T11:32:04.631Z,3.23
2017-12-17T11:34:32.812Z,2.23
2017-12-17T11:37:00.226Z,4.27
2017-12-17T11:39:28.440Z,3.53
2017-12-17T11:41:55.876Z,5.73
2017-12-17T11:44:23.322Z,5.13
2017-12-17T11:46:50.728Z,4.63
2017-12-17T11:49:18.160Z,1.67
2017-12-17T11:51:46.339Z,5.43
2017-12-17T11:54:13.752Z,3.13
2017-12-17T11:56:41.933Z,3.97
2017-12-17T11:59:09.393Z,4.63
2017-12-17T12:01:36.849Z,3.47
2017-12-17T12:04:04.264Z,4.40
2017-12-17T12:06:31.682Z,2.10
2017-12-17T12:08:59.885Z,3.83
2017-12-17T12:11:27.299Z,5.27
2017-12-17T12:13:54.754Z,2.47
2017-12-17T12:16:22.156Z,2.77
2017-12-17T12:18:50.386Z,5.10
2017-12-17T12:21:17.784Z,3.10
2017-12-17T12:23:45.235Z,3.10
2017-12-17T12:26:12.641Z,3.47
2017-12-17T12:28:40.833Z,6.90
2017-12-17T12:31:08.339Z,4.83
2017-12-17T12:33:35.778Z,2.87
2017-12-17T12:36:03.222Z,2.40
2017-12-17T12:38:30.627Z,5.50
2017-12-17T12:40:58.052Z,3.10
2017-12-17T12:43:25.460Z,5.57
2017-12-17T12:45:52.874Z,2.60
2017-12-17T12:48:21.063Z,4.93
2017-12-17T12:50:49.237Z,3.67
2017-12-17T12:53:16.699Z,4.93
2017-12-17T12:55:44.105Z,3.00
2017-12-17T12:58:11.563Z,6.10
2017-12-17T13:00:39.002Z,3.73
2017-12-17T13:03:06.413Z,3.40
2017-12-17T13:05:33.832Z,4.23
2017-12-17T13:08:01.292Z,3.50
2017-12-17T13:10:28.704Z,3.83
2017-12-17T13:12:56.116Z,2.73
2017-12-17T13:15:23.535Z,4.57
2017-12-17T13:17:50.982Z,4.03
2017-12-17T13:20:19.198Z,4.90
2017-12-17T13:22:46.604Z,4.60
2017-12-17T13:25:14.022Z,7.17
2017-12-17T13:27:41.481Z,3.97
2017-12-17T13:30:08.884Z,3.87
2017-12-17T13:32:37.118Z,4.10
2017-12-17T13:35:04.573Z,4.97
2017-12-17T13:37:31.971Z,5.83
2017-12-17T13:39:59.381Z,4.57
2017-12-17T13:42:27.563Z,6.20
2017-12-17T13:44:55.077Z,6.07
2017-12-17T13:47:22.484Z,5.47
2017-12-17T13:49:49.906Z,4.53
2017-12-17T13:52:17.320Z,4.37
2017-12-17T13:54:44.785Z,7.17
2017-12-17T13:57:12.197Z,4.83
2017-12-17T13:59:40.376Z,5.13
2017-12-17T14:02:07.836Z,7.73
2017-12-17T14:04:35.260Z,7.13
2017-12-17T14:07:02.688Z,3.80
2017-12-17T14:09:30.100Z,8.03
2017-12-17T14:11:58.299Z,7.93
2017-12-17T14:14:25.798Z,6.40
2017-12-17T14:16:53.204Z,4.50
2017-12-17T14:19:20.619Z,5.77
2017-12-17T14:21:48.035Z,7.33
2017-12-17T14:24:16.216Z,4.63
2017-12-17T14:26:43.627Z,6.10
2017-12-17T14:29:11.807Z,6.17
2017-12-17T14:31:39.245Z,4.00
2017-12-17T14:34:07.421Z,4.53
2017-12-17T14:36:34.832Z,4.20
2017-12-17T14:39:04.852Z,5.67
2017-12-17T14:41:32.276Z,5.20
2017-12-17T14:44:00.461Z,3.93
2017-12-17T14:46:27.884Z,4.57
2017-12-17T14:48:55.346Z,4.63
2017-12-17T14:51:22.752Z,7.43
2017-12-17T14:53:50.961Z,6.23
2017-12-17T14:56:18.380Z,4.33
2017-12-17T14:58:45.838Z,7.63
2017-12-17T15:01:13.241Z,5.63
2017-12-17T15:03:41.423Z,6.77
2017-12-17T15:06:08.844Z,5.53
2017-12-17T15:08:37.066Z,4.27
2017-12-17T15:11:04.468Z,4.87
2017-12-17T15:13:31.935Z,7.83
2017-12-17T15:15:59.329Z,4.77
2017-12-17T15:18:27.516Z,6.30
2017-12-17T15:20:54.970Z,5.17
2017-12-17T15:23:22.412Z,6.13
2017-12-17T15:25:49.840Z,9.27
2017-12-17T15:28:17.310Z,5.97
2017-12-17T15:30:44.726Z,5.27
2017-12-17T15:33:12.173Z,6.63
2017-12-17T15:35:39.584Z,5.07
2017-12-17T15:38:07.765Z,7.17
2017-12-17T15:40:35.200Z,4.63
2017-12-17T15:43:02.670Z,10.63
2017-12-17T15:45:30.123Z,6.97
2017-12-17T15:47:57.577Z,5.33
2017-12-17T15:50:25.030Z,8.10
2017-12-17T15:52:52.441Z,8.10
2017-12-17T15:55:19.860Z,5.30
2017-12-17T15:57:47.280Z,6.40
2017-12-17T16:00:14.699Z,5.03
2017-12-17T16:02:42.936Z,8.47
2017-12-17T16:05:10.391Z,6.53
2017-12-17T16:07:37.800Z,8.23
2017-12-17T16:10:05.270Z,6.37
2017-12-17T16:12:32.724Z,8.07
2017-12-17T16:15:00.120Z,5.77
2017-12-17T16:17:27.623Z,7.37
2017-12-17T16:19:55.834Z,8.73
2017-12-17T16:22:23.290Z,7.23
2017-12-17T16:24:50.709Z,5.77
2017-12-17T16:27:18.138Z,5.27
2017-12-17T16:29:45.607Z,8.70
2017-12-17T16:32:13.074Z,10.07
2017-12-17T16:34:41.470Z,7.57
2017-12-17T16:37:09.659Z,5.87
2017-12-17T16:39:37.080Z,6.13
2017-12-17T16:42:04.542Z,7.70
2017-12-17T16:44:32.092Z,6.40
2017-12-17T16:46:59.538Z,6.77
2017-12-17T16:49:26.990Z,5.67
2017-12-17T16:51:54.492Z,6.97
2017-12-17T16:54:21.898Z,6.83
2017-12-17T16:56:49.367Z,7.57
2017-12-17T16:59:17.531Z,9.47
2017-12-17T17:01:44.960Z,11.30
2017-12-17T17:04:12.510Z,8.77
2017-12-17T17:06:40.730Z,9.73
2017-12-17T17:09:08.183Z,10.33
2017-12-17T17:11:35.637Z,10.63
2017-12-17T17:14:03.860Z,9.40
2017-12-17T17:16:31.319Z,9.33
2017-12-17T17:18:58.788Z,11.67
2017-12-17T17:21:27.014Z,13.00
2017-12-17T17:23:54.599Z,9.60
2017-12-17T17:26:22.772Z,10.97
2017-12-17T17:28:50.286Z,12.57
2017-12-17T17:31:17.700Z,10.23
2017-12-17T17:33:45.172Z,9.23
2017-12-17T17:36:12.580Z,10.07
2017-12-17T17:38:40.047Z,9.70
2017-12-17T17:41:07.511Z,10.87
2017-12-17T17:43:35.768Z,10.13
2017-12-17T17:46:04.000Z,9.97
2017-12-17T17:48:31.463Z,10.63
2017-12-17T17:50:59.679Z,10.60
2017-12-17T17:53:27.139Z,12.17
2017-12-17T17:55:54.603Z,10.70
2017-12-17T17:58:22.051Z,11.23
2017-12-17T18:00:50.267Z,9.73
2017-12-17T18:03:17.735Z,11.13
2017-12-17T18:05:45.187Z,12.27
2017-12-17T18:08:12.642Z,10.93
2017-12-17T18:10:40.881Z,10.63
2017-12-17T18:13:08.344Z,11.70
2017-12-17T18:15:36.512Z,11.73
2017-12-17T18:18:03.998Z,11.90
2017-12-17T18:20:31.455Z,14.10
2017-12-17T18:22:58.915Z,11.07
2017-12-17T18:25:26.378Z,14.93
2017-12-17T18:27:54.653Z,12.90
2017-12-17T18:30:22.012Z,12.03
2017-12-17T18:32:49.519Z,13.27
2017-12-17T18:35:17.746Z,13.47
2017-12-17T18:37:45.208Z,12.43
2017-12-17T18:40:12.635Z,13.33
2017-12-17T18:42:40.070Z,12.50
2017-12-17T18:45:07.516Z,11.70
2017-12-17T18:47:35.708Z,16.97
2017-12-17T18:50:03.201Z,12.63
2017-12-17T18:52:30.655Z,14.43
2017-12-17T18:54:58.069Z,9.83
2017-12-17T18:57:25.534Z,9.90
2017-12-17T18:59:52.996Z,9.90
2017-12-17T19:02:20.464Z,11.10
2017-12-17T19:04:48.701Z,11.57
2017-12-17T19:07:16.167Z,10.27
2017-12-17T19:09:44.775Z,10.53
2017-12-17T19:12:12.231Z,9.03
2017-12-17T19:14:39.651Z,9.37
2017-12-17T19:17:07.114Z,7.97
2017-12-17T19:19:34.581Z,8.03
2017-12-17T19:22:02.027Z,9.27
2017-12-17T19:24:30.193Z,9.60
2017-12-17T19:26:57.668Z,8.30
2017-12-17T19:29:25.131Z,8.77
2017-12-17T19:31:52.587Z,10.63
2017-12-17T19:34:20.043Z,11.10
2017-12-17T19:36:47.510Z,8.63
2017-12-17T19:39:15.748Z,8.57
2017-12-17T19:41:43.220Z,8.67
2017-12-17T19:44:11.439Z,8.80
2017-12-17T19:46:38.887Z,9.07
2017-12-17T19:49:06.346Z,18.80
2017-12-17T19:51:34.603Z,12.20
2017-12-17T19:54:02.019Z,7.97
2017-12-17T19:56:29.482Z,6.93
2017-12-17T19:58:57.708Z,7.60
2017-12-17T20:01:25.964Z,6.77
2017-12-17T20:03:53.448Z,6.30
2017-12-17T20:06:20.912Z,7.93
2017-12-17T20:08:48.367Z,6.93
2017-12-17T20:11:15.823Z,6.40
2017-12-17T20:13:43.271Z,8.20
2017-12-17T20:16:10.680Z,6.50
2017-12-17T20:18:38.178Z,6.87
2017-12-17T20:21:05.644Z,7.57
2017-12-17T20:23:33.103Z,7.33
2017-12-17T20:26:00.567Z,7.67
2017-12-17T20:28:28.015Z,7.20
2017-12-17T20:30:55.471Z,7.17
2017-12-17T20:33:22.923Z,8.27
2017-12-17T20:35:50.395Z,7.03
2017-12-17T20:38:18.631Z,6.90
2017-12-17T20:40:46.084Z,7.47
2017-12-17T20:43:13.543Z,8.07
2017-12-17T20:45:41.802Z,7.60
2017-12-17T20:48:09.244Z,7.70
2017-12-17T20:50:37.470Z,7.47
2017-12-17T20:53:04.931Z,8.37
2017-12-17T20:55:32.383Z,7.53
2017-12-17T20:58:00.614Z,6.73
2017-12-17T21:00:28.063Z,7.53
2017-12-17T21:02:55.527Z,9.53
2017-12-17T21:05:23.756Z,7.90
2017-12-17T21:07:51.212Z,8.40
2017-12-17T21:10:19.491Z,7.20
2017-12-17T21:12:47.716Z,9.17
2017-12-17T21:15:15.183Z,11.50
2017-12-17T21:17:42.627Z,8.53
2017-12-17T21:20:10.079Z,6.77
2017-12-17T21:22:38.299Z,6.13
2017-12-17T21:25:05.767Z,8.47
2017-12-17T21:27:33.219Z,5.90
2017-12-17T21:30:00.676Z,6.20
2017-12-17T21:32:28.903Z,5.97
2017-12-17T21:34:56.355Z,6.43
2017-12-17T21:37:23.847Z,7.63
2017-12-17T21:39:51.313Z,6.57
2017-12-17T21:42:18.793Z,7.63
2017-12-17T21:44:47.027Z,8.37
2017-12-17T21:47:14.476Z,7.63
2017-12-17T21:49:41.956Z,7.13
2017-12-17T21:52:10.180Z,8.30
2017-12-17T21:54:37.707Z,6.33
2017-12-17T21:57:05.080Z,8.57
2017-12-17T21:59:33.301Z,5.70
2017-12-17T22:02:00.743Z,5.10
2017-12-17T22:04:28.195Z,5.80
2017-12-17T22:06:55.655Z,5.17
2017-12-17T22:09:23.160Z,5.10
2017-12-17T22:11:50.590Z,4.63
2017-12-17T22:14:18.043Z,3.77
2017-12-17T22:16:45.500Z,6.53
2017-12-17T22:19:12.975Z,3.77
2017-12-17T22:21:40.525Z,3.57
2017-12-17T22:24:08.744Z,3.43
2017-12-17T22:26:36.198Z,4.07
2017-12-17T22:29:04.423Z,3.97
2017-12-17T22:31:31.875Z,4.20
2017-12-17T22:33:59.340Z,3.83
2017-12-17T22:36:26.819Z,3.47
2017-12-17T22:38:55.044Z,3.23
2017-12-17T22:41:22.481Z,3.83
2017-12-17T22:43:49.946Z,5.13
2017-12-17T22:46:17.402Z,4.00
2017-12-17T22:48:45.637Z,4.80
2017-12-17T22:51:13.095Z,3.73
2017-12-17T22:53:41.318Z,3.87
2017-12-17T22:56:08.782Z,5.30
2017-12-17T22:58:36.239Z,5.40
2017-12-17T23:01:03.682Z,6.60
2017-12-17T23:03:31.902Z,4.37
2017-12-17T23:05:59.362Z,5.00
2017-12-17T23:08:26.815Z,4.60
2017-12-17T23:10:54.264Z,5.13
2017-12-17T23:13:22.485Z,4.30
2017-12-17T23:15:49.884Z,6.70
2017-12-17T23:18:17.355Z,5.37
2017-12-17T23:20:44.768Z,5.03
2017-12-17T23:23:12.193Z,4.97
2017-12-17T23:25:40.376Z,4.27
2017-12-17T23:28:07.795Z,5.83
2017-12-17T23:30:38.103Z,4.67
2017-12-17T23:33:06.298Z,5.53
2017-12-17T23:35:33.715Z,5.00
2017-12-17T23:38:01.143Z,5.03
2017-12-17T23:40:29.327Z,5.70
2017-12-17T23:42:56.764Z,5.83
2017-12-17T23:45:24.179Z,7.93
2017-12-17T23:47:52.384Z,5.67
2017-12-17T23:50:19.816Z,7.40
2017-12-17T23:52:47.248Z,5.20
2017-12-17T23:55:14.668Z,5.43
2017-12-17T23:57:42.849Z,5.10
